Time;durP1;ratioP1;P1;durP2;ratioP2;P2;SDS_P1;SDS_P2;PMS_P1;PMS_P2;Temp;Humidity;BMP_temperature;BMP_pressure;BME280_temperature;BME280_humidity;BME280_pressure;Samples;Min_cycle;Max_cycle;Signal;HPM_P1;HPM_P2
2022/03/21 00:00:53;;;;;;;66.95;35.38;;;0.60;99.90;;;;;;4984694;28;20098;-88
2022/03/21 00:03:20;;;;;;;61.85;34.13;;;0.60;99.90;;;;;;4991038;28;20042;-88
2022/03/21 00:05:46;;;;;;;67.07;36.35;;;0.60;99.90;;;;;;4984769;28;20030;-88
2022/03/21 00:08:14;;;;;;;70.35;38.85;;;0.60;99.90;;;;;;4976958;28;20027;-88
2022/03/21 00:10:40;;;;;;;78.50;41.65;;;0.50;99.90;;;;;;4991770;28;20037;-89
2022/03/21 00:13:06;;;;;;;74.00;39.47;;;0.50;99.90;;;;;;4994770;28;20027;-88
2022/03/21 00:15:32;;;;;;;73.72;39.67;;;0.60;99.90;;;;;;4993453;28;20454;-89
2022/03/21 00:18:02;;;;;;;69.10;35.80;;;0.60;99.90;;;;;;4994613;28;20026;-88
2022/03/21 00:20:29;;;;;;;69.03;35.92;;;0.60;99.90;;;;;;4989879;28;20045;-88
2022/03/21 00:22:55;;;;;;;82.93;41.45;;;0.50;99.90;;;;;;4993958;28;20031;-88
2022/03/21 00:25:20;;;;;;;73.78;40.20;;;0.50;99.90;;;;;;4994164;28;20030;-88
2022/03/21 00:27:46;;;;;;;68.50;36.20;;;0.50;99.90;;;;;;4993838;28;20026;-88
2022/03/21 00:30:12;;;;;;;72.22;39.55;;;0.50;99.90;;;;;;4985476;28;20411;-88
2022/03/21 00:32:38;;;;;;;69.90;37.78;;;0.50;99.90;;;;;;4980733;28;20448;-88
2022/03/21 00:35:08;;;;;;;73.90;38.72;;;0.50;99.90;;;;;;4990972;28;20022;-88
2022/03/21 00:37:38;;;;;;;70.03;38.15;;;0.50;99.90;;;;;;4986929;28;20027;-89
2022/03/21 00:40:07;;;;;;;73.05;37.90;;;0.50;99.90;;;;;;4993334;28;20062;-88
2022/03/21 00:42:34;;;;;;;69.10;38.15;;;0.40;99.90;;;;;;4993610;28;20030;-88
2022/03/21 00:45:09;;;;;;;77.28;40.30;;;0.50;99.90;;;;;;4992471;28;20038;-88
2022/03/21 00:47:35;;;;;;;75.78;40.58;;;0.40;99.90;;;;;;4993976;28;20501;-88
2022/03/21 00:50:00;;;;;;;80.78;41.95;;;0.40;99.90;;;;;;4993563;28;20035;-88
2022/03/21 00:52:26;;;;;;;79.28;40.53;;;0.40;99.90;;;;;;4994066;28;20015;-88
2022/03/21 00:54:51;;;;;;;75.07;40.58;;;0.30;99.90;;;;;;4987386;28;20035;-89
2022/03/21 00:57:17;;;;;;;83.18;42.83;;;0.30;99.90;;;;;;4976644;28;20468;-88
2022/03/21 00:59:42;;;;;;;84.20;44.15;;;0.20;99.90;;;;;;4984273;28;20050;-89
2022/03/21 01:02:12;;;;;;;72.70;38.58;;;0.20;99.90;;;;;;4990257;28;20026;-88
2022/03/21 01:04:38;;;;;;;64.15;34.90;;;0.20;99.90;;;;;;4990260;28;20039;-88
2022/03/21 01:07:04;;;;;;;67.50;35.45;;;0.20;99.90;;;;;;4974558;28;20031;-89
2022/03/21 01:09:29;;;;;;;71.93;36.70;;;0.10;99.90;;;;;;4990840;28;20030;-88
2022/03/21 01:11:55;;;;;;;77.45;38.97;;;0.10;99.90;;;;;;4993429;28;20037;-88
2022/03/21 01:14:21;;;;;;;73.03;39.70;;;0.10;99.90;;;;;;4987800;28;20023;-88
2022/03/21 01:16:46;;;;;;;72.32;37.08;;;0.10;99.90;;;;;;4987608;28;20168;-88
2022/03/21 01:19:12;;;;;;;74.53;39.10;;;0.10;99.90;;;;;;4982275;28;20039;-88
2022/03/21 01:21:37;;;;;;;76.43;42.13;;;0.00;99.90;;;;;;4991695;28;20026;-88
2022/03/21 01:24:03;;;;;;;82.45;42.85;;;0.10;99.90;;;;;;4993537;28;20028;-88
2022/03/21 01:26:29;;;;;;;81.35;42.22;;;0.10;99.90;;;;;;4983276;28;20073;-88
2022/03/21 01:28:56;;;;;;;78.53;39.50;;;0.10;99.90;;;;;;4988332;28;20042;-88
2022/03/21 01:31:22;;;;;;;71.35;37.63;;;0.10;99.90;;;;;;4978758;28;20101;-89
2022/03/21 01:33:48;;;;;;;71.18;38.17;;;0.00;99.90;;;;;;4992845;28;20034;-88
2022/03/21 01:36:13;;;;;;;76.20;41.00;;;0.00;99.90;;;;;;4992507;28;20368;-88
2022/03/21 01:38:39;;;;;;;78.50;41.42;;;0.00;99.90;;;;;;4987925;28;20490;-88
2022/03/21 01:41:04;;;;;;;77.28;38.45;;;-0.10;99.90;;;;;;4981288;28;20141;-89
2022/03/21 01:43:30;;;;;;;74.75;39.75;;;-0.10;99.90;;;;;;4986554;28;20376;-88
2022/03/21 01:45:55;;;;;;;78.82;40.20;;;-0.10;99.90;;;;;;4993990;28;20498;-88
2022/03/21 01:48:21;;;;;;;85.80;43.47;;;-0.10;99.90;;;;;;4989306;28;20133;-88
2022/03/21 01:50:46;;;;;;;78.80;40.67;;;-0.10;99.90;;;;;;4992545;28;20026;-88
2022/03/21 01:55:57;;;;;;;80.53;41.70;;;0.00;99.90;;;;;;4982961;28;20042;-88
2022/03/21 01:58:26;;;;;;;72.78;38.88;;;-0.10;99.90;;;;;;4983245;28;20034;-87
2022/03/21 02:00:52;;;;;;;83.03;41.90;;;-0.10;99.90;;;;;;4983714;28;20041;-89
2022/03/21 02:03:22;;;;;;;78.93;39.92;;;-0.10;99.90;;;;;;4984401;28;20026;-87
2022/03/21 02:05:48;;;;;;;81.50;41.83;;;-0.10;99.90;;;;;;4992565;28;20498;-88
2022/03/21 02:08:14;;;;;;;81.00;41.83;;;0.00;99.90;;;;;;4991824;28;20034;-88
2022/03/21 02:10:43;;;;;;;76.97;40.10;;;0.10;99.90;;;;;;4991657;28;20037;-88
2022/03/21 02:13:10;;;;;;;67.10;35.13;;;0.20;99.90;;;;;;4986394;28;20033;-88
2022/03/21 02:15:35;;;;;;;75.13;38.33;;;0.10;99.90;;;;;;4990925;28;20037;-88
2022/03/21 02:18:03;;;;;;;71.13;38.70;;;0.10;99.90;;;;;;4995030;28;20027;-88
2022/03/21 02:20:35;;;;;;;66.50;35.65;;;0.10;99.90;;;;;;4996112;28;20125;-88
2022/03/21 02:23:20;;;;;;;70.90;38.13;;;0.00;99.90;;;;;;4995575;28;20081;-88
2022/03/21 02:25:46;;;;;;;74.70;38.17;;;-0.10;99.90;;;;;;4977153;28;20042;-88
2022/03/21 02:28:15;;;;;;;83.57;41.58;;;-0.10;99.90;;;;;;4986156;28;20026;-88
2022/03/21 02:30:42;;;;;;;79.85;39.80;;;-0.10;99.90;;;;;;4993531;28;20054;-88
2022/03/21 02:33:09;;;;;;;88.93;43.45;;;-0.10;99.90;;;;;;4993003;28;20027;-88
2022/03/21 02:35:36;;;;;;;80.75;41.70;;;-0.20;99.90;;;;;;4992803;28;20031;-88
2022/03/21 02:38:02;;;;;;;78.60;40.33;;;-0.10;99.90;;;;;;4993980;28;20031;-88
2022/03/21 02:40:28;;;;;;;77.15;39.90;;;-0.10;99.90;;;;;;4996436;28;20034;-88
2022/03/21 02:42:54;;;;;;;83.00;40.85;;;-0.10;99.90;;;;;;4995248;28;20061;-88
2022/03/21 02:45:20;;;;;;;74.80;37.78;;;-0.10;99.90;;;;;;4997168;28;20103;-88
2022/03/21 02:47:45;;;;;;;77.70;38.90;;;-0.10;99.90;;;;;;4994933;28;20097;-88
2022/03/21 02:50:28;;;;;;;78.05;41.17;;;-0.10;99.90;;;;;;4996205;28;20040;-88
2022/03/21 02:52:55;;;;;;;74.20;38.05;;;-0.10;99.90;;;;;;4995566;28;20120;-88
2022/03/21 02:55:21;;;;;;;70.50;36.03;;;-0.10;99.90;;;;;;4996151;28;20030;-88
2022/03/21 02:57:46;;;;;;;66.75;37.10;;;-0.10;99.90;;;;;;4991428;28;20145;-88
2022/03/21 03:00:12;;;;;;;66.78;34.03;;;-0.10;99.90;;;;;;4979904;28;20034;-88
2022/03/21 03:02:38;;;;;;;70.22;35.63;;;-0.10;99.90;;;;;;4994144;28;20026;-88
2022/03/21 03:05:04;;;;;;;71.85;38.08;;;0.00;99.90;;;;;;4991947;28;20026;-88
2022/03/21 03:07:30;;;;;;;76.60;39.03;;;0.00;99.90;;;;;;4988206;28;20030;-88
2022/03/21 03:09:55;;;;;;;71.88;37.80;;;0.10;99.90;;;;;;4996821;28;20025;-88
2022/03/21 03:12:21;;;;;;;75.82;39.47;;;0.00;99.90;;;;;;4995705;28;20073;-88
2022/03/21 03:14:46;;;;;;;69.95;37.47;;;0.00;99.90;;;;;;4995758;28;20080;-88
2022/03/21 03:17:12;;;;;;;76.82;38.72;;;0.00;99.90;;;;;;4994773;28;20023;-88
2022/03/21 03:19:37;;;;;;;73.35;39.13;;;-0.10;99.90;;;;;;4989527;28;20070;-88
2022/03/21 03:22:04;;;;;;;72.25;39.20;;;-0.10;99.90;;;;;;4984566;28;20391;-88
2022/03/21 03:24:29;;;;;;;78.38;38.70;;;-0.20;99.90;;;;;;4997868;28;20447;-88
2022/03/21 03:26:55;;;;;;;67.95;37.22;;;-0.20;99.90;;;;;;4988601;28;20077;-88
2022/03/21 03:29:21;;;;;;;78.45;38.75;;;-0.20;99.90;;;;;;4994661;28;20490;-88
2022/03/21 03:31:46;;;;;;;68.60;36.97;;;-0.20;99.90;;;;;;4980143;28;20034;-88
2022/03/21 03:34:12;;;;;;;70.47;37.05;;;-0.30;99.90;;;;;;4993379;28;20061;-88
2022/03/21 03:36:38;;;;;;;74.07;37.95;;;-0.40;99.90;;;;;;4992901;28;20514;-88
2022/03/21 03:39:04;;;;;;;71.75;37.58;;;-0.40;99.90;;;;;;4985282;28;20062;-88
2022/03/21 03:41:30;;;;;;;86.28;42.67;;;-0.30;99.90;;;;;;4994998;28;20030;-88
2022/03/21 03:43:56;;;;;;;82.20;39.58;;;-0.30;99.90;;;;;;4993351;28;20033;-88
2022/03/21 03:46:22;;;;;;;78.65;39.00;;;-0.30;99.90;;;;;;4994480;28;20037;-88
2022/03/21 03:48:48;;;;;;;81.65;40.83;;;-0.30;99.90;;;;;;4993732;28;20438;-89
2022/03/21 03:51:14;;;;;;;86.22;41.72;;;-0.20;99.90;;;;;;4995185;28;20022;-88
2022/03/21 03:53:41;;;;;;;79.53;42.03;;;-0.10;99.90;;;;;;4981531;28;20554;-89
2022/03/21 03:56:07;;;;;;;78.57;41.80;;;0.00;99.90;;;;;;4992974;28;20026;-88
2022/03/21 03:58:34;;;;;;;75.63;41.08;;;0.00;99.90;;;;;;4994060;28;20375;-89
2022/03/21 04:01:00;;;;;;;71.22;38.10;;;0.10;99.90;;;;;;4993124;28;20445;-89
2022/03/21 04:06:10;;;;;;;77.45;40.00;;;-0.20;99.90;;;;;;4982515;28;20033;-88
2022/03/21 04:08:35;;;;;;;70.80;36.72;;;-0.20;99.90;;;;;;4990602;28;20030;-88
2022/03/21 04:11:01;;;;;;;77.07;38.45;;;-0.20;99.90;;;;;;4994803;28;20027;-88
2022/03/21 04:13:26;;;;;;;74.13;37.28;;;-0.30;99.90;;;;;;4987811;28;20019;-88
2022/03/21 04:15:52;;;;;;;74.13;37.40;;;-0.30;99.90;;;;;;4988604;28;20498;-88
2022/03/21 04:18:19;;;;;;;77.57;40.15;;;-0.30;99.90;;;;;;4980291;28;20027;-88
2022/03/21 04:20:45;;;;;;;80.88;41.08;;;-0.30;99.90;;;;;;4978569;28;20062;-88
2022/03/21 04:23:11;;;;;;;81.20;39.13;;;-0.30;99.90;;;;;;4977339;28;20097;-88
2022/03/21 04:25:37;;;;;;;77.32;39.88;;;-0.30;99.90;;;;;;4979385;28;20033;-88
2022/03/21 04:28:09;;;;;;;86.57;41.67;;;-0.30;99.90;;;;;;4993816;28;20033;-88
2022/03/21 04:30:37;;;;;;;72.18;35.60;;;-0.30;99.90;;;;;;4993065;28;20133;-88
2022/03/21 04:33:03;;;;;;;77.55;39.90;;;-0.30;99.90;;;;;;4985291;28;20034;-88
2022/03/21 04:35:29;;;;;;;75.75;37.90;;;-0.30;99.90;;;;;;4977066;28;20034;-88
2022/03/21 04:37:55;;;;;;;71.82;36.90;;;-0.40;99.90;;;;;;4994407;28;20501;-88
2022/03/21 04:40:23;;;;;;;89.85;44.17;;;-0.40;99.90;;;;;;4982643;28;20469;-88
2022/03/21 04:42:48;;;;;;;95.88;46.25;;;-0.30;99.90;;;;;;4993335;28;20086;-88
2022/03/21 04:45:14;;;;;;;90.47;46.20;;;-0.20;99.90;;;;;;4990303;28;20031;-88
2022/03/21 04:47:39;;;;;;;85.97;42.85;;;-0.10;99.90;;;;;;4996745;28;20038;-88
2022/03/21 04:50:07;;;;;;;79.85;41.97;;;-0.10;99.90;;;;;;4990544;28;20372;-89
2022/03/21 04:52:33;;;;;;;77.18;39.30;;;-0.20;99.90;;;;;;5002803;28;20038;-89
2022/03/21 04:55:00;;;;;;;77.90;39.45;;;-0.20;99.90;;;;;;5000634;28;20026;-88
2022/03/21 04:57:26;;;;;;;84.10;40.47;;;-0.30;99.90;;;;;;4986664;28;20081;-88
2022/03/21 04:59:53;;;;;;;87.55;44.20;;;-0.30;99.90;;;;;;4981044;28;20037;-89
2022/03/21 05:02:19;;;;;;;90.22;43.85;;;-0.30;99.90;;;;;;4979999;28;20033;-88
2022/03/21 05:04:44;;;;;;;90.20;44.15;;;-0.30;99.90;;;;;;4993531;28;20034;-88
2022/03/21 05:07:16;;;;;;;83.13;42.10;;;-0.20;99.90;;;;;;4993803;28;20110;-88
2022/03/21 05:09:42;;;;;;;90.57;42.70;;;-0.10;99.90;;;;;;4974808;28;20027;-88
2022/03/21 05:12:09;;;;;;;83.97;42.30;;;-0.10;99.90;;;;;;4975300;28;20035;-88
2022/03/21 05:14:35;;;;;;;85.80;43.17;;;-0.10;99.90;;;;;;4994017;28;20517;-87
2022/03/21 05:17:02;;;;;;;86.80;42.92;;;0.00;99.90;;;;;;4991821;28;20049;-88
2022/03/21 05:19:28;;;;;;;89.85;43.00;;;0.10;99.90;;;;;;5008345;23;20144;-88
2022/03/21 05:21:54;;;;;;;87.68;41.55;;;0.10;99.90;;;;;;4996188;28;20029;-88
2022/03/21 05:32:32;;;;;;;80.95;40.72;;;0.10;99.90;;;;;;4988879;28;20100;-89
2022/03/21 05:37:41;;;;;;;77.15;39.53;;;0.00;99.90;;;;;;4989274;28;20114;-89
2022/03/21 05:42:52;;;;;;;73.95;38.55;;;-0.30;99.90;;;;;;4986855;28;20514;-89
2022/03/21 05:45:20;;;;;;;76.80;39.63;;;-0.40;99.90;;;;;;4990165;28;20022;-89
2022/03/21 05:50:34;;;;;;;79.28;38.47;;;-0.60;99.90;;;;;;4978486;28;20073;-88
2022/03/21 05:53:00;;;;;;;80.28;39.47;;;-0.70;99.90;;;;;;4980326;28;20026;-88
2022/03/21 05:55:26;;;;;;;82.88;40.97;;;-0.70;99.90;;;;;;4987334;28;20053;-88
2022/03/21 05:57:51;;;;;;;83.78;39.83;;;-0.70;99.90;;;;;;4977862;28;20037;-88
2022/03/21 06:00:22;;;;;;;80.75;38.65;;;-0.80;99.90;;;;;;4985827;28;20431;-89
2022/03/21 06:02:49;;;;;;;88.43;42.10;;;-0.70;99.90;;;;;;4972283;28;20480;-88
2022/03/21 06:05:14;;;;;;;79.85;39.45;;;-0.60;99.90;;;;;;4977628;28;20442;-88
2022/03/21 06:07:40;;;;;;;77.88;40.22;;;-0.60;99.90;;;;;;4990074;28;20113;-88
2022/03/21 06:10:06;;;;;;;83.15;40.78;;;-0.70;99.90;;;;;;4991772;28;20375;-88
2022/03/21 06:12:31;;;;;;;83.07;41.00;;;-0.70;99.90;;;;;;4996411;28;20038;-88
2022/03/21 06:14:57;;;;;;;81.75;39.42;;;-0.70;99.90;;;;;;4991244;28;20025;-88
2022/03/21 06:17:22;;;;;;;79.75;37.63;;;-0.70;99.90;;;;;;4988524;28;20438;-88
2022/03/21 06:19:48;;;;;;;71.75;36.85;;;-0.60;99.90;;;;;;4991762;28;20089;-88
2022/03/21 06:22:14;;;;;;;72.45;37.20;;;-0.60;99.90;;;;;;4979744;28;20023;-88
2022/03/21 06:24:39;;;;;;;79.13;39.00;;;-0.60;99.90;;;;;;4979888;28;20118;-89
2022/03/21 06:27:05;;;;;;;82.35;39.30;;;-0.40;99.90;;;;;;4982595;28;20038;-88
2022/03/21 06:29:31;;;;;;;78.80;38.60;;;-0.30;99.90;;;;;;4979605;28;20495;-88
2022/03/21 06:31:57;;;;;;;77.03;38.80;;;-0.10;99.90;;;;;;4976287;28;20798;-88
2022/03/21 06:34:22;;;;;;;77.97;39.80;;;0.10;99.90;;;;;;4991667;28;20030;-89
2022/03/21 06:36:49;;;;;;;75.65;37.58;;;0.10;99.90;;;;;;4991851;28;20380;-87
2022/03/21 06:39:14;;;;;;;67.60;36.58;;;0.10;99.90;;;;;;4987529;28;20042;-88
2022/03/21 06:41:44;;;;;;;70.32;35.53;;;0.10;99.90;;;;;;4982746;28;20027;-88
2022/03/21 06:44:10;;;;;;;69.60;36.15;;;0.10;99.90;;;;;;4981536;28;20033;-88
2022/03/21 06:46:35;;;;;;;71.82;35.67;;;0.20;99.90;;;;;;4989473;28;20035;-88
2022/03/21 06:49:01;;;;;;;75.00;39.05;;;0.30;99.90;;;;;;4975140;28;20113;-88
2022/03/21 06:51:27;;;;;;;73.85;36.78;;;0.50;99.90;;;;;;4978470;28;20169;-89
2022/03/21 06:53:53;;;;;;;73.00;38.05;;;0.60;99.90;;;;;;4985542;28;20062;-88
2022/03/21 06:56:18;;;;;;;73.10;37.97;;;0.70;99.90;;;;;;4985554;28;21133;-88
2022/03/21 06:58:44;;;;;;;67.60;36.78;;;0.80;99.90;;;;;;4984387;28;20125;-87
2022/03/21 07:01:09;;;;;;;68.95;36.40;;;0.90;99.90;;;;;;4985536;28;20030;-88
2022/03/21 07:03:34;;;;;;;68.95;36.20;;;1.00;99.90;;;;;;4990071;28;20027;-89
2022/03/21 07:06:00;;;;;;;66.85;35.83;;;1.00;99.90;;;;;;4995071;28;20027;-88
2022/03/21 07:08:26;;;;;;;67.15;36.63;;;1.10;99.90;;;;;;4992533;28;20033;-87
2022/03/21 07:10:52;;;;;;;68.30;37.40;;;1.20;99.90;;;;;;4994754;28;20038;-88
2022/03/21 07:13:17;;;;;;;64.72;36.00;;;1.30;99.90;;;;;;5011079;28;20491;-88
2022/03/21 07:15:44;;;;;;;68.50;36.75;;;1.40;99.90;;;;;;4987526;28;20134;-88
2022/03/21 07:18:09;;;;;;;76.40;38.50;;;1.40;99.90;;;;;;4942690;28;1065973;-87
2022/03/21 07:20:36;;;;;;;78.00;40.33;;;1.60;99.90;;;;;;4980140;28;20047;-88
2022/03/21 07:23:01;;;;;;;70.30;37.97;;;1.70;99.90;;;;;;4984901;28;20545;-88
2022/03/21 07:25:27;;;;;;;77.93;40.67;;;1.80;99.90;;;;;;4996790;28;20038;-89
2022/03/21 07:27:53;;;;;;;72.28;39.78;;;1.90;99.90;;;;;;4995399;28;20026;-88
2022/03/21 07:30:19;;;;;;;73.70;40.22;;;2.10;99.90;;;;;;4991468;28;20015;-88
2022/03/21 07:32:45;;;;;;;72.35;40.75;;;2.20;99.90;;;;;;4984324;28;20501;-88
2022/03/21 07:35:13;;;;;;;76.72;41.55;;;2.40;99.90;;;;;;4996404;28;20041;-88
2022/03/21 07:37:43;;;;;;;70.57;39.67;;;2.60;99.90;;;;;;4996148;28;20023;-88
2022/03/21 07:40:11;;;;;;;69.03;39.35;;;2.70;99.90;;;;;;4988791;28;20035;-88
2022/03/21 07:42:47;;;;;;;77.38;42.25;;;2.80;99.90;;;;;;4986482;28;20075;-87
2022/03/21 07:47:59;;;;;;;74.85;41.75;;;3.20;99.90;;;;;;4994779;28;20037;-87
2022/03/21 07:50:26;;;;;;;72.30;41.17;;;3.30;99.90;;;;;;4976632;28;20478;-87
2022/03/21 07:52:52;;;;;;;72.95;41.40;;;3.50;99.90;;;;;;4975530;28;20050;-88
2022/03/21 07:55:18;;;;;;;78.55;43.55;;;3.70;99.90;;;;;;4991229;28;20042;-88
2022/03/21 07:57:44;;;;;;;70.10;39.67;;;3.90;99.90;;;;;;4996031;28;20182;-88
2022/03/21 08:00:10;;;;;;;81.30;41.65;;;4.00;99.90;;;;;;4993350;28;20045;-87
2022/03/21 08:02:37;;;;;;;77.00;42.35;;;4.20;99.90;;;;;;4996697;28;20394;-87
2022/03/21 08:05:04;;;;;;;70.32;37.78;;;4.30;99.90;;;;;;4995186;28;20457;-87
2022/03/21 08:07:31;;;;;;;72.63;39.95;;;4.60;99.90;;;;;;4992159;28;20033;-87
2022/03/21 08:09:57;;;;;;;67.93;39.28;;;4.80;99.90;;;;;;4993674;28;20474;-86
2022/03/21 08:12:23;;;;;;;69.55;40.45;;;4.90;99.90;;;;;;4995046;28;20050;-89
2022/03/21 08:14:49;;;;;;;69.65;38.17;;;5.10;99.90;;;;;;4979681;28;20070;-88
2022/03/21 08:17:15;;;;;;;60.83;35.53;;;5.30;99.90;;;;;;4994787;28;20026;-88
2022/03/21 08:19:40;;;;;;;63.50;36.42;;;5.50;99.90;;;;;;4979584;28;20050;-87
2022/03/21 08:22:07;;;;;;;62.33;35.67;;;5.70;99.90;;;;;;4975888;28;20027;-88
2022/03/21 08:24:35;;;;;;;61.72;34.53;;;5.90;99.90;;;;;;4988061;28;20061;-87
2022/03/21 08:27:01;;;;;;;58.33;35.08;;;6.10;99.90;;;;;;4992089;28;20034;-88
2022/03/21 08:29:26;;;;;;;48.35;31.25;;;6.20;99.90;;;;;;5009188;28;20030;-88
2022/03/21 08:31:52;;;;;;;52.88;30.83;;;6.40;99.90;;;;;;4991249;28;20030;-88
2022/03/21 08:34:17;;;;;;;46.28;29.20;;;6.60;99.90;;;;;;4989591;28;20490;-88
2022/03/21 08:36:43;;;;;;;53.17;30.38;;;6.80;99.90;;;;;;4990537;28;20038;-89
2022/03/21 08:39:11;;;;;;;44.08;26.88;;;7.00;99.90;;;;;;4993287;28;20030;-88
2022/03/21 08:41:38;;;;;;;42.83;25.48;;;7.30;99.90;;;;;;4990999;28;20506;-88
2022/03/21 08:44:03;;;;;;;34.63;21.58;;;7.40;99.90;;;;;;4990251;28;20067;-85
2022/03/21 08:46:29;;;;;;;34.42;19.75;;;7.60;99.90;;;;;;4979544;28;20031;-85
2022/03/21 08:51:39;;;;;;;29.88;15.40;;;8.10;99.90;;;;;;4995570;28;20505;-87
2022/03/21 08:54:05;;;;;;;26.80;13.35;;;8.40;99.90;;;;;;4988934;28;20109;-87
2022/03/21 08:56:30;;;;;;;23.27;13.35;;;8.60;99.90;;;;;;5008585;28;20030;-87
2022/03/21 08:58:56;;;;;;;18.90;12.20;;;8.90;99.90;;;;;;4998255;28;20406;-86
2022/03/21 09:01:23;;;;;;;19.30;12.50;;;9.00;99.90;;;;;;4992774;28;20125;-86
2022/03/21 09:03:49;;;;;;;21.02;11.27;;;9.20;99.90;;;;;;4991365;28;20035;-85
2022/03/21 09:06:15;;;;;;;17.02;10.23;;;9.30;99.90;;;;;;4997214;28;20022;-85
2022/03/21 09:08:42;;;;;;;19.55;10.65;;;9.40;99.90;;;;;;4993157;28;20073;-85
2022/03/21 09:11:08;;;;;;;20.50;10.88;;;9.50;99.90;;;;;;4994058;28;20056;-85
2022/03/21 09:13:34;;;;;;;17.88;11.40;;;9.60;99.90;;;;;;4993436;28;20030;-86
2022/03/21 09:15:59;;;;;;;25.10;12.68;;;9.70;99.90;;;;;;4988966;28;20027;-86
2022/03/21 09:18:25;;;;;;;21.25;12.32;;;9.80;99.90;;;;;;4979043;28;20031;-85
2022/03/21 09:20:50;;;;;;;20.33;11.48;;;10.00;99.90;;;;;;4976413;28;20030;-86
2022/03/21 09:23:16;;;;;;;19.67;10.65;;;10.10;99.90;;;;;;4979340;28;20018;-86
2022/03/21 09:25:41;;;;;;;19.88;11.20;;;10.20;99.90;;;;;;4979929;28;20034;-86
2022/03/21 09:28:08;;;;;;;20.33;11.77;;;10.30;99.90;;;;;;4993692;28;20521;-86
2022/03/21 09:30:33;;;;;;;19.75;10.63;;;10.40;99.90;;;;;;4993171;28;20053;-85
2022/03/21 09:32:59;;;;;;;21.38;11.10;;;10.40;99.90;;;;;;4983815;28;20384;-86
2022/03/21 09:35:25;;;;;;;18.42;11.02;;;10.50;99.90;;;;;;4989475;28;20026;-86
2022/03/21 09:37:51;;;;;;;22.50;11.00;;;10.60;99.90;;;;;;4992978;28;20426;-86
2022/03/21 09:40:19;;;;;;;16.67;10.38;;;10.70;99.90;;;;;;5007576;28;20089;-86
2022/03/21 09:42:45;;;;;;;19.75;10.75;;;10.80;99.90;;;;;;4993338;28;20026;-86
2022/03/21 09:45:11;;;;;;;20.15;11.50;;;10.90;99.90;;;;;;4990590;28;20030;-86
2022/03/21 09:50:28;;;;;;;20.80;11.70;;;11.20;99.90;;;;;;4988054;28;20085;-87
2022/03/21 09:52:55;;;;;;;22.42;12.20;;;11.20;99.90;;;;;;4973976;28;20031;-88
2022/03/21 09:55:20;;;;;;;23.33;11.80;;;11.30;99.90;;;;;;4992385;28;20026;-86
2022/03/21 09:57:46;;;;;;;23.25;11.20;;;11.50;99.90;;;;;;4986538;28;20030;-85
2022/03/21 10:00:12;;;;;;;24.13;12.55;;;11.50;99.90;;;;;;4990576;28;20034;-88
2022/03/21 10:02:37;;;;;;;23.77;12.27;;;11.60;99.90;;;;;;5001267;28;20033;-86
2022/03/21 10:05:03;;;;;;;22.67;12.13;;;11.70;99.90;;;;;;4985223;28;20027;-87
2022/03/21 10:07:29;;;;;;;19.13;11.82;;;11.80;99.90;;;;;;4973937;28;20041;-86
2022/03/21 10:10:09;;;;;;;23.08;11.73;;;11.90;99.90;;;;;;4989776;28;20034;-86
2022/03/21 10:12:36;;;;;;;18.38;11.23;;;12.00;99.50;;;;;;4981619;28;20058;-85
2022/03/21 10:15:08;;;;;;;20.65;11.23;;;12.10;99.00;;;;;;4978906;28;20139;-87
2022/03/21 10:17:34;;;;;;;21.95;12.05;;;12.20;98.80;;;;;;4987447;28;20658;-86
2022/03/21 10:19:59;;;;;;;21.70;11.52;;;12.20;98.60;;;;;;4975781;28;20065;-89
2022/03/21 10:22:43;;;;;;;21.27;12.15;;;12.30;98.30;;;;;;4990225;28;20030;-87
2022/03/21 10:25:15;;;;;;;20.55;11.93;;;12.50;98.00;;;;;;4985986;28;20096;-87
2022/03/21 10:27:43;;;;;;;23.98;12.82;;;12.60;97.70;;;;;;4989448;28;20043;-87
2022/03/21 10:30:15;;;;;;;20.88;10.60;;;12.60;97.30;;;;;;4989881;28;20039;-86
2022/03/21 10:32:46;;;;;;;24.52;12.15;;;12.70;97.10;;;;;;4982087;28;20025;-86
2022/03/21 10:35:23;;;;;;;18.10;12.00;;;12.80;96.70;;;;;;4991214;28;20031;-86
2022/03/21 10:37:56;;;;;;;22.27;12.85;;;12.90;96.40;;;;;;4994136;28;20030;-86
2022/03/21 10:40:23;;;;;;;;;;;12.90;96.00;;;;;;4994613;28;20033;-86
2022/03/21 10:43:06;;;;;;;24.02;12.88;;;12.90;95.80;;;;;;4995803;28;20358;-88
2022/03/21 10:45:34;;;;;;;28.13;13.95;;;12.90;95.70;;;;;;4992134;28;20038;-89
2022/03/21 10:48:00;;;;;;;22.05;13.77;;;13.00;95.50;;;;;;4994164;28;20398;-89
2022/03/21 10:50:34;;;;;;;24.65;13.57;;;13.10;95.30;;;;;;4987638;28;20064;-90
2022/03/21 10:53:04;;;;;;;25.38;13.85;;;13.20;95.00;;;;;;4993663;28;20034;-90
2022/03/21 10:55:29;;;;;;;23.88;13.98;;;13.40;94.80;;;;;;4985517;28;20022;-89
2022/03/21 10:57:55;;;;;;;26.38;13.85;;;13.40;94.40;;;;;;4992428;28;20030;-87
2022/03/21 11:00:22;;;;;;;23.50;14.10;;;13.50;93.80;;;;;;4991413;28;20041;-87
2022/03/21 11:03:06;;;;;;;22.15;12.80;;;13.60;93.60;;;;;;4982012;28;20019;-87
2022/03/21 11:05:37;;;;;;;27.50;14.82;;;13.70;93.30;;;;;;4992451;28;20512;-87
2022/03/21 11:08:04;;;;;;;27.20;14.43;;;13.80;93.30;;;;;;4979890;28;20065;-86
2022/03/21 11:10:30;;;;;;;23.35;14.00;;;13.80;93.00;;;;;;4976553;28;20023;-88
2022/03/21 11:12:57;;;;;;;29.45;15.52;;;13.90;92.80;;;;;;4986204;28;20035;-87
2022/03/21 11:15:24;;;;;;;28.08;14.68;;;14.00;92.30;;;;;;4993145;28;20025;-87
2022/03/21 11:17:51;;;;;;;26.63;14.82;;;14.00;92.10;;;;;;4981381;28;20034;-87
2022/03/21 11:20:16;;;;;;;28.60;14.43;;;14.10;91.80;;;;;;4983549;28;20697;-86
2022/03/21 11:22:43;;;;;;;27.00;14.45;;;14.10;91.70;;;;;;4992310;28;20090;-87
2022/03/21 11:25:15;;;;;;;23.80;14.10;;;14.20;91.50;;;;;;4985616;28;20019;-86
2022/03/21 11:27:59;;;;;;;24.10;14.73;;;14.30;91.30;;;;;;4981334;28;20034;-86
2022/03/21 11:30:48;;;;;;;26.88;14.38;;;14.30;91.10;;;;;;5007635;28;20038;-86
2022/03/21 11:33:55;;;;;;;22.75;14.70;;;14.40;90.10;;;;;;4993546;28;20031;-86
2022/03/21 11:36:23;;;;;;;23.45;14.55;;;14.40;90.00;;;;;;4996124;28;20035;-88
2022/03/21 11:38:49;;;;;;;28.63;15.20;;;14.50;90.00;;;;;;4992536;28;20030;-87
2022/03/21 11:41:21;;;;;;;25.33;14.85;;;14.50;89.40;;;;;;4995956;28;20026;-87
2022/03/21 11:44:06;;;;;;;28.17;14.98;;;14.60;88.80;;;;;;4995350;28;20018;-86
2022/03/21 11:46:33;;;;;;;22.00;14.13;;;14.60;88.40;;;;;;4994170;28;20045;-86
2022/03/21 11:48:59;;;;;;;26.00;15.63;;;14.70;86.70;;;;;;4995864;28;20124;-87
2022/03/21 11:51:29;;;;;;;30.50;14.93;;;14.80;87.20;;;;;;4995034;28;20157;-86
2022/03/21 11:53:56;;;;;;;23.27;14.18;;;14.90;87.00;;;;;;4994800;28;20026;-88
2022/03/21 11:56:43;;;;;;;24.92;14.93;;;14.90;86.60;;;;;;4990970;28;20034;-87
2022/03/21 11:59:32;;;;;;;21.38;14.13;;;15.20;85.80;;;;;;4995606;28;20037;-88
2022/03/21 12:01:59;;;;;;;23.55;14.57;;;15.20;85.70;;;;;;5001519;28;20497;-87
2022/03/21 12:04:24;;;;;;;23.70;14.48;;;15.30;85.50;;;;;;4993640;28;20113;-86
2022/03/21 12:06:56;;;;;;;24.23;15.15;;;15.40;85.00;;;;;;4978264;28;20018;-87
2022/03/21 12:09:22;;;;;;;23.63;15.23;;;15.50;84.30;;;;;;4995186;28;20053;-88
2022/03/21 12:11:48;;;;;;;22.83;15.25;;;15.70;84.50;;;;;;4996087;28;20030;-87
2022/03/21 12:14:23;;;;;;;26.02;16.10;;;15.70;84.10;;;;;;4985751;28;20031;-86
2022/03/21 12:17:01;;;;;;;31.30;17.38;;;15.80;82.80;;;;;;4976985;28;20027;-87
2022/03/21 12:19:57;;;;;;;26.75;16.08;;;15.90;82.60;;;;;;4979074;28;20055;-88
2022/03/21 12:22:28;;;;;;;24.40;15.35;;;15.90;82.10;;;;;;5001476;28;20045;-87
2022/03/21 12:25:26;;;;;;;27.63;15.90;;;16.00;82.00;;;;;;4994028;28;20050;-87
2022/03/21 12:28:16;;;;;;;24.60;16.73;;;16.10;81.70;;;;;;4978728;28;20062;-87
2022/03/21 12:30:42;;;;;;;25.63;15.40;;;16.10;81.00;;;;;;4995601;28;20042;-87
2022/03/21 12:33:12;;;;;;;36.22;18.52;;;16.10;80.30;;;;;;4993870;28;20019;-87
2022/03/21 12:35:44;;;;;;;29.33;16.58;;;16.10;80.20;;;;;;4989965;28;20026;-87
2022/03/21 12:38:28;;;;;;;28.65;16.85;;;16.20;80.50;;;;;;4975592;28;20395;-88
2022/03/21 12:41:00;;;;;;;26.58;16.00;;;16.20;80.30;;;;;;4981038;28;20045;-87
2022/03/21 12:43:28;;;;;;;27.77;17.85;;;16.30;79.50;;;;;;4991008;28;20118;-87
2022/03/21 12:46:04;;;;;;;24.75;16.08;;;16.40;78.70;;;;;;4983958;28;20030;-87
2022/03/21 12:48:31;;;;;;;27.13;16.52;;;16.50;78.50;;;;;;4991389;28;20018;-89
2022/03/21 12:50:57;;;;;;;27.88;16.23;;;16.50;78.50;;;;;;4989234;28;20031;-90
2022/03/21 12:53:23;;;;;;;25.98;16.70;;;16.60;78.40;;;;;;4986381;28;20030;-91
2022/03/21 12:56:03;;;;;;;28.80;18.25;;;16.70;78.20;;;;;;5009679;28;20096;-91
2022/03/21 12:58:29;;;;;;;27.75;17.58;;;16.80;78.00;;;;;;4994402;28;20035;-91
2022/03/21 13:00:56;;;;;;;25.17;16.90;;;16.80;77.70;;;;;;4995877;28;20038;-91
2022/03/21 13:03:23;;;;;;;26.92;15.55;;;17.00;77.30;;;;;;4991439;28;20034;-91